Time;durP1;ratioP1;P1;durP2;ratioP2;P2;SDS_P1;SDS_P2;PMS_P1;PMS_P2;Temp;Humidity;BMP_temperature;BMP_pressure;BME280_temperature;BME280_humidity;BME280_pressure;Samples;Min_cycle;Max_cycle;Signal;HPM_P1;HPM_P2
2024/04/19 00:00:12;;;;;;;11.33;6.90;;;;;;;1.29;81.33;99723.59;1829807;77;28176;-58
2024/04/19 00:02:40;;;;;;;10.80;6.92;;;;;;;1.28;81.44;99716.69;1829698;77;25374;-58
2024/04/19 00:05:08;;;;;;;11.63;6.72;;;;;;;1.25;81.47;99712.66;1829792;78;25361;-58
2024/04/19 00:07:34;;;;;;;12.93;6.97;;;;;;;1.23;81.34;99705.47;1829692;77;25487;-57
2024/04/19 00:10:01;;;;;;;12.50;8.28;;;;;;;1.22;81.25;99707.06;1829827;78;25463;-58
2024/04/19 00:12:27;;;;;;;13.00;7.62;;;;;;;1.18;81.48;99705.45;1829768;77;27502;-56
2024/04/19 00:14:53;;;;;;;11.35;7.40;;;;;;;1.17;81.42;99701.17;1829717;78;25357;-59
2024/04/19 00:17:20;;;;;;;11.48;7.42;;;;;;;1.13;81.22;99700.11;1829785;77;25453;-58
2024/04/19 00:19:46;;;;;;;11.40;7.50;;;;;;;1.11;81.57;99700.90;1829827;78;25574;-58
2024/04/19 00:22:12;;;;;;;13.43;7.45;;;;;;;1.08;81.70;99703.54;1829916;78;25381;-59
2024/04/19 00:24:38;;;;;;;11.22;6.70;;;;;;;1.05;82.04;99696.60;1829993;78;27526;-59
2024/04/19 00:27:05;;;;;;;10.32;6.78;;;;;;;1.03;81.96;99700.85;1829883;78;25780;-59
2024/04/19 00:29:31;;;;;;;11.55;7.03;;;;;;;1.02;82.07;99697.12;1829958;77;25426;-58
2024/04/19 00:31:57;;;;;;;13.65;7.30;;;;;;;0.99;82.28;99693.12;1829934;78;25590;-57
2024/04/19 00:34:23;;;;;;;11.03;6.37;;;;;;;0.96;82.16;99689.64;1829990;78;25420;-58
2024/04/19 00:36:49;;;;;;;10.18;5.95;;;;;;;0.93;82.13;99694.94;1830047;77;27488;-57
2024/04/19 00:39:15;;;;;;;12.43;6.25;;;;;;;0.93;82.30;99700.81;1829718;77;25764;-57
2024/04/19 00:41:41;;;;;;;10.45;6.15;;;;;;;0.91;82.55;99698.94;1829894;77;25208;-55
2024/04/19 00:44:08;;;;;;;12.15;6.50;;;;;;;0.89;82.55;99700.53;1829888;78;26106;-57
2024/04/19 00:46:34;;;;;;;10.65;6.00;;;;;;;0.89;82.69;99702.40;1829949;78;25398;-58
2024/04/19 00:49:00;;;;;;;8.60;5.53;;;;;;;0.87;82.60;99701.83;1829917;78;27415;-58
2024/04/19 00:51:27;;;;;;;10.40;5.28;;;;;;;0.84;82.54;99699.71;1829907;78;25642;-58
2024/04/19 00:53:53;;;;;;;10.32;5.28;;;;;;;0.81;82.67;99702.34;1829870;78;25614;-57
2024/04/19 00:56:21;;;;;;;10.03;5.45;;;;;;;0.78;82.69;99698.07;1829885;77;25519;-60
2024/04/19 00:58:48;;;;;;;9.80;5.97;;;;;;;0.77;82.98;99703.94;1829891;78;25363;-57
2024/04/19 01:01:14;;;;;;;8.93;5.35;;;;;;;0.76;82.98;99704.19;1829871;78;27580;-54
2024/04/19 01:03:42;;;;;;;12.88;6.53;;;;;;;0.71;83.37;99699.09;1829840;78;25737;-58
2024/04/19 01:06:08;;;;;;;10.08;5.92;;;;;;;0.70;83.12;99698.84;1829890;77;25521;-57
2024/04/19 01:08:35;;;;;;;10.45;6.00;;;;;;;0.70;83.16;99694.05;1829877;77;26509;-58
2024/04/19 01:11:02;;;;;;;12.18;6.28;;;;;;;0.66;83.08;99695.61;1829890;77;25604;-58
2024/04/19 01:13:28;;;;;;;11.03;6.75;;;;;;;0.64;83.12;99695.07;1829908;78;27548;-58
2024/04/19 01:15:54;;;;;;;12.43;6.60;;;;;;;0.62;83.20;99691.88;1829891;77;25590;-57
2024/04/19 01:18:21;;;;;;;12.58;7.05;;;;;;;0.59;83.64;99692.38;1829879;78;25505;-58
2024/04/19 01:20:48;;;;;;;10.58;6.15;;;;;;;0.57;83.60;99693.97;1829811;78;25522;-58
2024/04/19 01:23:18;;;;;;;11.97;6.60;;;;;;;0.53;83.31;99688.36;1829948;77;25562;-58
2024/04/19 01:25:46;;;;;;;8.58;6.08;;;;;;;0.49;83.15;99691.24;1829888;77;27460;-58
2024/04/19 01:28:13;;;;;;;11.57;6.22;;;;;;;0.47;83.10;99690.70;1829802;77;25712;-58
2024/04/19 01:30:43;;;;;;;10.30;6.53;;;;;;;0.45;83.18;99690.70;1829889;77;25384;-57
2024/04/19 01:33:10;;;;;;;10.23;6.83;;;;;;;0.42;83.16;99690.67;1829845;78;25543;-58
2024/04/19 01:35:37;;;;;;;10.53;6.05;;;;;;;0.38;83.15;99684.81;1829920;78;25598;-59
2024/04/19 01:38:04;;;;;;;12.47;6.65;;;;;;;0.35;83.40;99691.42;1829834;77;26756;-58
2024/04/19 01:40:31;;;;;;;9.65;6.15;;;;;;;0.34;83.57;99685.82;1829834;78;25551;-58
2024/04/19 01:42:57;;;;;;;15.53;7.17;;;;;;;0.32;83.52;99690.60;1829909;77;25432;-57
2024/04/19 01:45:23;;;;;;;12.05;6.10;;;;;;;0.30;83.67;99683.41;1829827;78;25514;-58
2024/04/19 01:47:49;;;;;;;14.47;6.75;;;;;;;0.28;84.05;99684.20;1829883;77;25697;-58
2024/04/19 01:50:16;;;;;;;12.40;6.10;;;;;;;0.27;83.86;99675.94;1829889;77;27566;-56
2024/04/19 01:52:48;;;;;;;10.38;6.05;;;;;;;0.25;83.68;99678.05;1829784;78;25478;-59
2024/04/19 01:55:16;;;;;;;9.30;5.72;;;;;;;0.21;83.66;99677.77;1829881;78;25424;-58
2024/04/19 01:57:43;;;;;;;10.32;6.28;;;;;;;0.18;83.59;99679.06;1829775;78;26239;-58
2024/04/19 02:00:12;;;;;;;9.98;6.05;;;;;;;0.16;83.70;99677.19;1829858;78;25545;-58
2024/04/19 02:02:39;;;;;;;10.50;5.90;;;;;;;0.13;83.30;99676.37;1830082;77;27443;-58
2024/04/19 02:05:06;;;;;;;10.03;6.35;;;;;;;0.10;83.79;99675.57;1829756;78;25789;-58
2024/04/19 02:07:32;;;;;;;9.58;5.85;;;;;;;0.10;83.89;99674.75;1829846;77;25600;-57
2024/04/19 02:09:59;;;;;;;8.60;5.58;;;;;;;0.08;83.76;99674.20;1829809;78;25475;-58
2024/04/19 02:12:25;;;;;;;10.85;5.90;;;;;;;0.06;83.80;99671.00;1829854;78;25442;-58
2024/04/19 02:14:54;;;;;;;10.25;6.55;;;;;;;0.07;84.12;99675.25;1829849;77;27518;-58
2024/04/19 02:17:20;;;;;;;10.98;5.53;;;;;;;0.05;84.14;99672.87;1829735;78;25418;-58
2024/04/19 02:19:46;;;;;;;9.55;6.20;;;;;;;0.04;84.27;99677.11;1829833;77;25594;-58
2024/04/19 02:22:12;;;;;;;9.55;5.97;;;;;;;0.03;84.50;99678.16;1829814;78;25568;-58
2024/04/19 02:24:39;;;;;;;9.93;6.08;;;;;;;0.02;84.33;99673.87;1829842;78;25537;-58
2024/04/19 02:27:17;;;;;;;10.75;5.87;;;;;;;-0.02;84.23;99671.75;1829863;77;28010;-58
2024/04/19 02:32:18;;;;;;;11.78;5.92;;;;;;;-0.06;84.21;99676.49;1829898;78;25358;-58
2024/04/19 02:34:44;;;;;;;10.60;5.75;;;;;;;-0.09;84.35;99670.34;1829769;77;25482;-58
2024/04/19 02:37:10;;;;;;;11.63;6.15;;;;;;;-0.13;84.28;99668.73;1829805;78;25415;-58
2024/04/19 02:39:36;;;;;;;12.35;5.92;;;;;;;-0.14;84.28;99667.64;1829652;77;27483;-55
2024/04/19 02:42:04;;;;;;;13.25;6.33;;;;;;;-0.17;84.13;99669.48;1829717;78;25857;-54
2024/04/19 02:44:30;;;;;;;10.63;6.10;;;;;;;-0.21;84.03;99665.98;1829817;77;25391;-58
2024/04/19 02:46:56;;;;;;;10.45;6.17;;;;;;;-0.27;83.67;99669.67;1829743;78;25586;-58
2024/04/19 02:49:23;;;;;;;10.30;6.30;;;;;;;-0.32;83.60;99676.27;1829837;78;25614;-56
2024/04/19 02:51:49;;;;;;;10.38;6.33;;;;;;;-0.38;83.54;99670.09;1829762;78;27471;-56
2024/04/19 02:54:15;;;;;;;9.35;5.70;;;;;;;-0.44;83.47;99668.98;1829710;78;25531;-57
2024/04/19 02:56:41;;;;;;;10.20;5.95;;;;;;;-0.51;83.41;99658.56;1829773;77;25394;-57
2024/04/19 02:59:07;;;;;;;10.40;6.17;;;;;;;-0.58;83.19;99655.28;1829693;78;25538;-57
2024/04/19 03:01:35;;;;;;;11.90;6.55;;;;;;;-0.62;83.35;99665.61;1829783;78;25592;-57
2024/04/19 03:04:01;;;;;;;10.53;6.35;;;;;;;-0.68;82.89;99657.83;1829879;78;27528;-56
2024/04/19 03:06:29;;;;;;;10.48;6.25;;;;;;;-0.71;82.91;99656.48;1829673;78;25590;-58
2024/04/19 03:08:55;;;;;;;10.28;6.03;;;;;;;-0.73;83.13;99655.12;1829800;77;25541;-54
2024/04/19 03:11:21;;;;;;;10.20;5.67;;;;;;;-0.78;83.28;99650.05;1829756;78;26112;-55
2024/04/19 03:13:49;;;;;;;18.07;7.47;;;;;;;-0.81;83.46;99654.52;1829801;77;25370;-58
2024/04/19 03:16:15;;;;;;;11.28;6.30;;;;;;;-0.85;83.43;99647.29;1829814;77;27437;-57
2024/04/19 03:18:42;;;;;;;13.78;6.35;;;;;;;-0.89;83.68;99648.85;1829627;77;25602;-54
2024/04/19 03:21:08;;;;;;;12.70;6.55;;;;;;;-0.93;83.79;99645.10;1829788;77;25434;-57
2024/04/19 03:23:34;;;;;;;17.77;7.92;;;;;;;-0.97;83.95;99640.28;1829746;78;25607;-55
2024/04/19 03:26:02;;;;;;;11.55;6.90;;;;;;;-0.98;84.08;99642.65;1829781;78;25602;-57
2024/04/19 03:28:29;;;;;;;13.90;7.35;;;;;;;-0.98;84.19;99638.67;1829785;78;27610;-57
2024/04/19 03:30:55;;;;;;;14.28;7.70;;;;;;;-1.00;84.35;99643.43;1829708;78;25644;-58
2024/04/19 03:33:21;;;;;;;13.58;7.47;;;;;;;-1.03;84.42;99635.95;1829788;77;25443;-55
2024/04/19 03:35:47;;;;;;;17.35;8.20;;;;;;;-1.03;84.38;99635.16;1829747;77;25523;-55
2024/04/19 03:38:14;;;;;;;13.53;7.95;;;;;;;-1.06;84.34;99629.80;1829778;77;25585;-57
2024/04/19 03:40:55;;;;;;;14.13;7.90;;;;;;;-1.06;84.65;99630.34;1824726;78;27490;-56
2024/04/19 03:43:23;;;;;;;13.55;7.87;;;;;;;-1.06;85.25;99621.84;1823623;78;25582;-54
2024/04/19 03:45:50;;;;;;;15.65;7.72;;;;;;;-1.02;85.81;99616.84;1823673;78;25554;-56
2024/04/19 03:48:17;;;;;;;13.22;8.10;;;;;;;-0.99;86.00;99619.00;1823631;78;25576;-57
2024/04/19 03:50:46;;;;;;;12.47;7.25;;;;;;;-0.97;85.97;99611.08;1823716;78;25514;-54
2024/04/19 03:53:12;;;;;;;;;;;;;;;-0.95;86.05;99616.14;1826327;78;27467;-56
2024/04/19 03:55:38;;;;;;;13.58;6.95;;;;;;;-0.92;85.97;99614.83;1823606;78;33099;-55
2024/04/19 03:58:04;;;;;;;12.78;6.47;;;;;;;-0.91;86.16;99617.77;1823706;78;25569;-55
2024/04/19 04:00:31;;;;;;;12.53;6.50;;;;;;;-0.88;86.18;99621.26;1823815;78;25496;-55
2024/04/19 04:02:57;;;;;;;13.83;7.05;;;;;;;-0.87;86.19;99622.34;1823872;78;25612;-54
2024/04/19 04:05:24;;;;;;;12.90;7.28;;;;;;;-0.84;86.32;99621.82;1823844;78;27621;-57
2024/04/19 04:07:50;;;;;;;16.42;7.05;;;;;;;-0.82;86.55;99619.73;1823764;78;25589;-57
2024/04/19 04:10:17;;;;;;;13.48;7.15;;;;;;;-0.78;86.75;99619.50;1823845;78;25427;-57
2024/04/19 04:12:44;;;;;;;14.13;8.00;;;;;;;-0.72;86.99;99620.88;1823800;78;25585;-54
2024/04/19 04:15:10;;;;;;;12.33;6.95;;;;;;;-0.69;87.11;99615.08;1823868;78;25386;-56
2024/04/19 04:17:36;;;;;;;13.00;6.90;;;;;;;-0.66;87.04;99617.23;1823845;78;27573;-57
2024/04/19 04:20:04;;;;;;;12.05;7.35;;;;;;;-0.63;87.15;99612.72;1823707;78;25564;-54
2024/04/19 04:22:30;;;;;;;16.15;8.15;;;;;;;-0.60;87.35;99613.55;1823821;78;25387;-58
2024/04/19 04:24:57;;;;;;;13.78;7.55;;;;;;;-0.55;87.94;99618.91;1823789;78;26469;-58
2024/04/19 04:27:23;;;;;;;18.17;9.23;;;;;;;-0.48;88.19;99616.06;1823849;78;25529;-58
2024/04/19 04:29:49;;;;;;;19.02;9.20;;;;;;;-0.42;88.62;99616.39;1823782;78;27455;-59
2024/04/19 04:32:15;;;;;;;16.70;9.75;;;;;;;-0.34;89.22;99610.61;1823731;78;25544;-57
2024/04/19 04:34:43;;;;;;;19.77;11.65;;;;;;;-0.24;89.58;99619.18;1823790;78;25553;-58
2024/04/19 04:37:09;;;;;;;17.25;9.73;;;;;;;-0.16;89.67;99619.25;1823869;78;25508;-57
2024/04/19 04:39:36;;;;;;;19.27;10.53;;;;;;;-0.09;89.58;99612.65;1823700;78;25375;-57
2024/04/19 04:42:03;;;;;;;18.85;11.33;;;;;;;-0.03;89.67;99608.98;1823812;78;27480;-58
2024/04/19 04:44:32;;;;;;;18.35;10.38;;;;;;;0.03;89.90;99613.80;1823668;78;25533;-56
2024/04/19 04:46:59;;;;;;;18.98;11.83;;;;;;;0.13;90.15;99610.41;1823712;78;25461;-61
2024/04/19 04:49:26;;;;;;;20.92;13.30;;;;;;;0.23;90.44;99606.48;1823755;78;25492;-61
2024/04/19 04:51:53;;;;;;;19.87;11.93;;;;;;;0.34;90.82;99608.16;1823842;78;25592;-61
2024/04/19 04:54:19;;;;;;;22.30;12.70;;;;;;;0.46;91.04;99607.14;1823776;78;27437;-61
2024/04/19 04:56:46;;;;;;;20.97;13.28;;;;;;;0.57;91.31;99608.01;1823690;78;25593;-61
2024/04/19 04:59:12;;;;;;;24.47;13.13;;;;;;;0.70;91.74;99598.22;1823764;78;25623;-64
2024/04/19 05:01:38;;;;;;;31.15;15.00;;;;;;;0.83;91.99;99599.58;1823756;78;25594;-64
2024/04/19 05:04:04;;;;;;;24.23;14.60;;;;;;;0.95;91.94;99602.02;1823815;78;25628;-64
2024/04/19 05:06:32;;;;;;;23.47;14.68;;;;;;;1.07;92.13;99603.41;1823775;78;28042;-66
2024/04/19 05:08:58;;;;;;;26.05;16.30;;;;;;;1.19;91.91;99603.67;1823662;77;25807;-66
2024/04/19 05:11:24;;;;;;;29.70;15.88;;;;;;;1.28;91.85;99606.11;1823653;78;25480;-66
2024/04/19 05:13:51;;;;;;;22.58;14.87;;;;;;;1.42;92.09;99602.39;1823593;78;25617;-65
2024/04/19 05:16:18;;;;;;;28.23;19.37;;;;;;;1.50;91.67;99595.21;1823586;78;25613;-59
2024/04/19 05:18:45;;;;;;;130.78;88.62;;;;;;;1.59;91.27;99596.81;1823740;78;27987;-62
2024/04/19 05:21:11;;;;;;;49.50;29.70;;;;;;;1.67;91.08;99596.28;1803228;78;25479;-57
2024/04/19 05:23:38;;;;;;;28.60;17.30;;;;;;;1.77;91.15;99604.80;1823762;78;25700;-57
2024/04/19 05:26:04;;;;;;;26.90;18.00;;;;;;;1.91;91.60;99597.05;1823803;78;25410;-57
2024/04/19 05:28:30;;;;;;;26.73;16.90;;;;;;;2.11;92.56;99601.56;1823777;78;25604;-54
2024/04/19 05:30:57;;;;;;;27.32;17.17;;;;;;;2.30;92.68;99597.79;1823776;78;28224;-57
2024/04/19 05:33:23;;;;;;;30.37;17.67;;;;;;;2.49;92.52;99594.02;1823703;78;25455;-66
2024/04/19 05:35:50;;;;;;;28.02;16.07;;;;;;;2.69;91.88;99602.48;1823789;78;25386;-63
2024/04/19 05:38:16;;;;;;;26.65;17.35;;;;;;;2.79;90.78;99596.58;1823772;78;25588;-62
2024/04/19 05:40:42;;;;;;;25.30;15.48;;;;;;;2.97;91.54;99597.02;1823698;78;25840;-62
2024/04/19 05:43:09;;;;;;;26.97;16.02;;;;;;;3.11;91.10;99590.53;1823795;78;27455;-62
2024/04/19 05:45:35;;;;;;;25.88;17.20;;;;;;;3.21;90.56;99581.66;1823672;78;25895;-62
2024/04/19 05:48:04;;;;;;;28.27;16.05;;;;;;;3.34;90.32;99589.06;1823799;78;25608;-62
2024/04/19 05:50:31;;;;;;;25.90;16.82;;;;;;;3.47;89.78;99587.07;1823734;78;26010;-62
2024/04/19 05:52:58;;;;;;;25.08;15.20;;;;;;;3.60;89.23;99584.31;1823805;78;25586;-63
2024/04/19 05:55:25;;;;;;;25.70;16.40;;;;;;;3.79;89.66;99575.06;1823739;78;28014;-63
2024/04/19 05:57:51;;;;;;;22.90;15.30;;;;;;;4.04;90.17;99575.37;1823678;78;25594;-63
2024/04/19 06:00:18;;;;;;;27.37;15.50;;;;;;;4.34;90.36;99577.45;1823690;78;25459;-62
2024/04/19 06:02:44;;;;;;;25.27;15.90;;;;;;;4.63;89.17;99573.39;1823710;78;25513;-62
2024/04/19 06:05:10;;;;;;;24.40;15.13;;;;;;;4.93;88.95;99569.27;1823795;78;25460;-63
2024/04/19 06:07:37;;;;;;;79.87;54.83;;;;;;;5.21;88.50;99565.66;1823728;78;27548;-62
2024/04/19 06:10:05;;;;;;;70.15;48.15;;;;;;;5.47;86.46;99561.24;1823617;78;25455;-63
2024/04/19 06:12:34;;;;;;;19.92;13.88;;;;;;;5.71;85.76;99562.45;1823860;78;30035;-62
2024/04/19 06:15:00;;;;;;;22.05;14.38;;;;;;;5.95;86.02;99563.65;1823679;78;25476;-62
2024/04/19 06:17:26;;;;;;;20.97;12.43;;;;;;;6.07;83.94;99562.41;1823749;78;25364;-61
2024/04/19 06:19:52;;;;;;;18.50;12.07;;;;;;;6.08;84.03;99546.02;1823704;78;27543;-62
2024/04/19 06:22:18;;;;;;;19.40;11.75;;;;;;;6.03;82.39;99553.34;1823618;78;25592;-62
2024/04/19 06:24:45;;;;;;;19.98;11.55;;;;;;;5.97;82.12;99556.67;1823739;78;25465;-63
2024/04/19 06:27:13;;;;;;;17.48;12.03;;;;;;;5.91;81.79;99556.50;1823689;78;25545;-63
2024/04/19 06:29:40;;;;;;;15.53;11.35;;;;;;;5.79;81.28;99553.73;1823762;78;25563;-63
2024/04/19 06:32:07;;;;;;;15.30;11.20;;;;;;;5.73;81.83;99554.11;1823715;77;27823;-63
2024/04/19 06:34:33;;;;;;;17.98;12.07;;;;;;;5.71;82.34;99547.70;1823624;78;25372;-63
2024/04/19 06:37:00;;;;;;;20.72;12.88;;;;;;;5.75;82.71;99554.61;1823702;78;25576;-63
2024/04/19 06:39:27;;;;;;;17.37;12.20;;;;;;;5.79;82.22;99547.02;1823686;78;25527;-62
2024/04/19 06:41:57;;;;;;;18.57;12.15;;;;;;;5.80;82.18;99538.42;1829133;78;25560;-62
2024/04/19 06:44:25;;;;;;;19.70;12.93;;;;;;;5.94;83.08;99543.28;1830071;77;29581;-62
2024/04/19 06:46:51;;;;;;;19.60;11.75;;;;;;;5.98;82.10;99545.64;1829723;78;25547;-62
2024/04/19 06:49:17;;;;;;;17.62;10.70;;;;;;;6.03;81.45;99543.42;1829924;78;25408;-63
2024/04/19 06:51:44;;;;;;;19.62;12.33;;;;;;;6.06;81.46;99543.36;1829879;77;25512;-63
2024/04/19 06:54:11;;;;;;;16.95;11.00;;;;;;;6.19;81.84;99535.08;1829844;78;25385;-62
2024/04/19 06:56:37;;;;;;;13.30;9.70;;;;;;;6.35;81.82;99537.17;1829846;77;27472;-62
2024/04/19 06:59:03;;;;;;;12.73;9.13;;;;;;;6.43;79.53;99530.28;1829727;78;25752;-63
2024/04/19 07:01:32;;;;;;;14.07;9.40;;;;;;;6.58;80.38;99529.74;1829800;78;25170;-63
2024/04/19 07:03:59;;;;;;;11.33;8.23;;;;;;;6.68;79.23;99529.53;1829915;78;25923;-63
2024/04/19 07:06:25;;;;;;;10.98;8.15;;;;;;;6.61;77.56;99521.87;1829865;77;25579;-63
2024/04/19 07:08:51;;;;;;;15.68;8.90;;;;;;;6.54;77.56;99530.89;1829570;78;27486;-61
2024/04/19 07:11:17;;;;;;;29.02;20.32;;;;;;;6.46;77.82;99518.95;1829827;78;25586;-61
2024/04/19 07:13:47;;;;;;;18.45;12.95;;;;;;;6.43;77.61;99511.48;1828718;78;25715;-62
2024/04/19 07:16:14;;;;;;;15.25;10.00;;;;;;;6.38;77.72;99516.95;1828311;78;26457;-67
2024/04/19 07:18:41;;;;;;;12.23;7.85;;;;;;;6.33;77.75;99508.48;1829764;77;25379;-67
2024/04/19 07:21:07;;;;;;;11.22;7.55;;;;;;;6.29;77.44;99511.50;1829771;77;27891;-67
2024/04/19 07:23:33;;;;;;;14.15;8.15;;;;;;;6.22;77.03;99508.42;1829719;78;25799;-68
2024/04/19 07:25:59;;;;;;;10.32;7.22;;;;;;;6.15;77.65;99508.81;1829834;77;25608;-68
2024/04/19 07:28:26;;;;;;;14.23;7.90;;;;;;;6.19;77.62;99509.02;1829774;77;25848;-67
2024/04/19 07:30:53;;;;;;;15.40;8.60;;;;;;;6.20;77.76;99501.22;1829866;78;25433;-68
2024/04/19 07:33:20;;;;;;;13.68;8.63;;;;;;;6.24;78.04;99509.47;1829827;78;27359;-67
2024/04/19 07:35:46;;;;;;;12.73;7.75;;;;;;;6.25;77.76;99500.30;1829741;78;25381;-67
2024/04/19 07:38:13;;;;;;;14.53;8.35;;;;;;;6.23;77.54;99499.81;1829775;78;25498;-63
2024/04/19 07:40:39;;;;;;;12.05;7.90;;;;;;;6.21;77.32;99499.31;1829591;77;25590;-64
2024/04/19 07:43:06;;;;;;;13.95;7.92;;;;;;;6.18;77.41;99492.67;1829808;78;25614;-63
2024/04/19 07:45:32;;;;;;;16.20;7.75;;;;;;;6.21;77.81;99494.73;1829756;78;27464;-62
2024/04/19 07:47:58;;;;;;;9.58;7.40;;;;;;;6.30;77.65;99496.17;1829765;78;25517;-64
2024/04/19 07:50:24;;;;;;;12.63;8.08;;;;;;;6.33;77.54;99487.52;1829873;77;25612;-62
2024/04/19 07:52:51;;;;;;;12.47;8.80;;;;;;;6.43;78.03;99481.14;1813555;78;25500;-63
2024/04/19 07:55:17;;;;;;;11.20;7.47;;;;;;;6.57;77.81;99487.83;1829792;78;25604;-63
2024/04/19 07:57:50;;;;;;;10.32;7.37;;;;;;;6.64;77.07;99488.21;1829770;78;27453;-63
2024/04/19 08:00:21;;;;;;;13.32;8.20;;;;;;;6.78;77.69;99480.14;1829586;77;25689;-62
2024/04/19 08:02:46;;;;;;;12.82;8.45;;;;;;;6.99;78.61;99481.25;1829645;77;25511;-63
2024/04/19 08:05:17;;;;;;;12.58;8.10;;;;;;;7.27;79.53;99479.25;1829731;78;26269;-63
2024/04/19 08:07:42;;;;;;;;;;;;;;;7.77;80.16;99479.59;1832402;77;25443;-63
2024/04/19 08:10:15;;;;;;;23.42;12.18;;;;;;;8.07;77.10;99475.04;1829946;78;27586;-59
2024/04/19 08:12:38;;;;;;;11.38;7.72;;;;;;;8.30;77.47;99470.36;1829240;77;27296;-62
2024/04/19 08:15:07;;;;;;;8.93;6.97;;;;;;;8.41;74.83;99471.10;1829883;78;25462;-59
2024/04/19 08:17:34;;;;;;;7.72;4.37;;;;;;;8.39;72.68;99463.08;1829870;77;26137;-63
2024/04/19 08:20:00;;;;;;;7.70;4.20;;;;;;;8.28;71.11;99468.54;1829707;77;25422;-62
2024/04/19 08:22:26;;;;;;;5.87;4.25;;;;;;;8.20;71.02;99472.78;1829792;78;28064;-63
2024/04/19 08:24:52;;;;;;;7.40;4.28;;;;;;;8.12;70.26;99467.63;1829698;78;25584;-63
2024/04/19 08:27:18;;;;;;;8.10;4.35;;;;;;;7.96;69.53;99461.06;1829732;78;25517;-62
2024/04/19 08:29:44;;;;;;;7.42;4.22;;;;;;;7.86;70.04;99457.53;1829730;77;25856;-63
2024/04/19 08:32:10;;;;;;;7.08;4.30;;;;;;;7.85;70.52;99453.27;1829761;78;25430;-62
2024/04/19 08:34:36;;;;;;;6.87;4.55;;;;;;;7.80;69.97;99445.33;1829750;77;28055;-62
2024/04/19 08:37:03;;;;;;;10.50;4.97;;;;;;;7.76;70.44;99444.34;1829660;78;25412;-62
2024/04/19 08:39:29;;;;;;;7.22;4.30;;;;;;;7.81;70.20;99447.46;1829706;78;25619;-62
2024/04/19 08:42:01;;;;;;;8.38;4.37;;;;;;;7.88;70.91;99447.80;1829591;78;26008;-63
2024/04/19 08:44:29;;;;;;;8.85;4.30;;;;;;;7.91;70.39;99448.53;1829195;77;25738;-63
2024/04/19 08:46:57;;;;;;;5.08;3.92;;;;;;;8.00;70.02;99447.20;1829022;77;27487;-61
2024/04/19 08:49:26;;;;;;;6.70;4.58;;;;;;;8.01;69.61;99435.34;1829786;78;25899;-62
2024/04/19 08:51:56;;;;;;;20.30;14.35;;;;;;;8.03;68.84;99449.28;1830109;77;25521;-62
2024/04/19 08:54:24;;;;;;;22.32;14.68;;;;;;;8.02;69.06;99437.73;1829995;78;25704;-61
2024/04/19 08:56:52;;;;;;;8.93;6.60;;;;;;;8.09;69.47;99441.84;1830026;78;25382;-63
2024/04/19 08:59:20;;;;;;;10.25;6.20;;;;;;;8.20;68.66;99441.24;1829868;78;27458;-62
2024/04/19 09:01:48;;;;;;;7.37;5.42;;;;;;;8.28;68.01;99441.59;1829792;77;25532;-62
2024/04/19 09:04:14;;;;;;;8.15;5.78;;;;;;;8.32;68.30;99435.81;1829848;77;25438;-62
2024/04/19 09:06:43;;;;;;;9.23;5.97;;;;;;;8.38;68.91;99439.39;1829844;77;25540;-62
2024/04/19 09:09:11;;;;;;;8.17;6.23;;;;;;;8.50;69.19;99430.72;1830159;78;25424;-62
2024/04/19 09:11:48;;;;;;;11.93;6.87;;;;;;;8.56;68.73;99427.30;1829883;77;27452;-62
2024/04/19 09:14:12;;;;;;;10.82;7.03;;;;;;;8.57;67.53;99433.73;1828132;77;25434;-62
2024/04/19 09:16:41;;;;;;;10.38;7.47;;;;;;;8.48;66.94;99438.33;1829828;77;25499;-62
2024/04/19 09:19:09;;;;;;;12.75;7.10;;;;;;;8.38;67.05;99429.17;1829832;78;26053;-61
2024/04/19 09:21:37;;;;;;;13.53;7.80;;;;;;;8.43;67.82;99433.09;1829872;77;25521;-61
2024/04/19 09:24:09;;;;;;;10.15;7.53;;;;;;;8.54;68.01;99420.09;1829853;77;27427;-62
2024/04/19 09:26:36;;;;;;;12.23;7.70;;;;;;;8.84;69.45;99419.70;1829921;77;25588;-62
2024/04/19 09:29:06;;;;;;;11.40;8.45;;;;;;;9.14;68.25;99421.97;1829949;78;25562;-62
2024/04/19 09:31:32;;;;;;;12.35;7.80;;;;;;;9.40;67.30;99431.91;1829855;77;25545;-61
2024/04/19 09:33:58;;;;;;;11.40;7.83;;;;;;;9.53;66.49;99423.36;1829859;78;25529;-62
2024/04/19 09:36:26;;;;;;;11.73;7.80;;;;;;;9.63;65.97;99420.88;1829857;78;27356;-61
2024/04/19 09:38:56;;;;;;;12.13;8.95;;;;;;;9.76;65.68;99431.24;1829787;77;25435;-61
2024/04/19 09:41:26;;;;;;;10.95;6.90;;;;;;;9.77;65.98;99423.36;1828349;78;25568;-62
2024/04/19 09:43:58;;;;;;;11.85;6.53;;;;;;;9.88;65.17;99424.59;1823242;78;25628;-62
2024/04/19 09:46:29;;;;;;;9.25;5.97;;;;;;;9.86;62.16;99420.86;1822188;78;25755;-62
2024/04/19 09:49:04;;;;;;;10.53;6.10;;;;;;;9.93;64.63;99419.54;1822471;78;27517;-63
2024/04/19 09:51:35;;;;;;;7.85;6.78;;;;;;;10.08;62.79;99413.04;1823566;78;25438;-62
2024/04/19 09:54:09;;;;;;;10.20;6.33;;;;;;;10.44;64.62;99413.64;1822416;78;25603;-62
2024/04/19 09:56:49;;;;;;;9.58;6.45;;;;;;;10.65;64.23;99404.95;1823804;78;26004;-63
2024/04/19 09:59:20;;;;;;;8.90;6.10;;;;;;;10.99;64.43;99404.41;1823903;78;25360;-66
2024/04/19 10:01:48;;;;;;;7.92;5.87;;;;;;;11.71;60.64;99395.19;1823953;78;27481;-66
2024/04/19 10:04:17;;;;;;;10.63;5.65;;;;;;;11.76;61.32;99401.20;1824061;78;25423;-67
2024/04/19 10:06:45;;;;;;;11.05;5.47;;;;;;;12.17;61.29;99393.16;1824017;78;25566;-66
2024/04/19 10:09:14;;;;;;;6.80;4.87;;;;;;;12.63;58.84;99392.94;1824024;78;25630;-68
2024/04/19 10:11:45;;;;;;;9.50;4.87;;;;;;;13.15;59.96;99385.83;1824271;78;25466;-67
2024/04/19 10:14:13;;;;;;;5.87;4.47;;;;;;;13.49;57.66;99381.67;1824173;78;28283;-66
2024/04/19 10:16:42;;;;;;;6.12;4.55;;;;;;;13.98;57.41;99380.50;1803440;78;25768;-66
2024/04/19 10:19:13;;;;;;;11.30;4.37;;;;;;;14.55;57.26;99372.19;1823970;78;25365;-66
2024/04/19 10:21:42;;;;;;;5.37;4.08;;;;;;;15.00;53.21;99367.26;1823943;78;26107;-67
2024/04/19 10:24:19;;;;;;;5.35;4.33;;;;;;;15.20;50.73;99362.53;1823787;78;25444;-66
2024/04/19 10:26:53;;;;;;;7.60;3.85;;;;;;;15.48;52.37;99364.97;1823860;78;27368;-66
2024/04/19 10:29:21;;;;;;;7.58;4.53;;;;;;;15.17;46.65;99356.47;1823070;78;25534;-67
2024/04/19 10:31:53;;;;;;;7.30;3.98;;;;;;;14.72;47.38;99366.91;1823789;78;25433;-67
2024/04/19 10:34:24;;;;;;;5.10;3.98;;;;;;;14.76;49.26;99357.45;1803372;78;25565;-67
2024/04/19 10:36:55;;;;;;;7.20;3.90;;;;;;;15.11;50.62;99351.88;1823767;78;25375;-66
2024/04/19 10:39:24;;;;;;;5.80;3.40;;;;;;;15.29;47.96;99350.06;1823786;78;27613;-67
2024/04/19 10:41:53;;;;;;;7.72;4.28;;;;;;;15.54;47.90;99340.13;1823727;78;25438;-68
2024/04/19 10:44:22;;;;;;;5.85;3.15;;;;;;;15.49;44.09;99340.66;1823958;78;25615;-67
2024/04/19 10:46:51;;;;;;;6.40;3.12;;;;;;;15.46;45.92;99335.12;1823849;78;25612;-66
2024/04/19 10:49:22;;;;;;;;;;;;;;;15.37;44.46;99322.34;1826484;78;25670;-67
2024/04/19 10:51:53;;;;;;;3.87;2.80;;;;;;;15.03;44.99;99314.77;1823827;78;28061;-67
2024/04/19 10:54:20;;;;;;;5.78;3.33;;;;;;;14.52;44.07;99325.30;1823728;78;25856;-66
2024/04/19 10:56:48;;;;;;;4.22;3.12;;;;;;;14.10;44.17;99321.14;1823876;78;25250;-68
2024/04/19 10:59:14;;;;;;;8.13;2.90;;;;;;;14.26;47.30;99317.77;1823804;78;25590;-66
2024/04/19 11:01:43;;;;;;;4.62;3.00;;;;;;;14.52;47.69;99314.97;1823789;78;25494;-66
2024/04/19 11:04:11;;;;;;;5.55;3.25;;;;;;;14.48;44.96;99317.63;1823806;78;28116;-67
2024/04/19 11:06:39;;;;;;;3.20;2.40;;;;;;;14.24;43.83;99313.84;1823845;78;25580;-66
2024/04/19 11:09:07;;;;;;;7.35;2.80;;;;;;;14.04;45.48;99309.73;1823669;78;25360;-66
2024/04/19 11:11:38;;;;;;;4.83;2.80;;;;;;;14.49;43.90;99314.33;1823618;78;25552;-68
2024/04/19 11:14:10;;;;;;;5.70;2.72;;;;;;;14.30;43.80;99301.52;1823815;78;25597;-66
2024/04/19 11:16:36;;;;;;;4.90;2.45;;;;;;;14.02;43.85;99301.16;1823721;78;28220;-67
2024/04/19 11:19:05;;;;;;;11.30;6.47;;;;;;;13.64;43.69;99302.66;1823724;78;25598;-61
2024/04/19 11:21:34;;;;;;;10.28;7.03;;;;;;;13.41;44.95;99298.42;1823814;78;25361;-60
2024/04/19 11:24:02;;;;;;;5.15;2.85;;;;;;;13.56;46.70;99281.90;1823716;78;25472;-62
2024/04/19 11:26:31;;;;;;;6.42;2.77;;;;;;;13.95;47.29;99292.85;1817916;78;25530;-62
2024/04/19 11:28:59;;;;;;;5.62;2.75;;;;;;;14.41;47.86;99275.33;1823753;78;28144;-62
2024/04/19 11:31:25;;;;;;;3.92;2.12;;;;;;;14.62;47.31;99270.88;1823641;78;26091;-63
2024/04/19 11:33:56;;;;;;;4.90;2.70;;;;;;;14.53;46.05;99273.02;1823702;78;25355;-62